createdAt,value
2022-12-17T00:00:00.738Z,82.80
2022-12-17T00:02:47.916Z,82.22
2022-12-17T00:05:33.692Z,82.40
2022-12-17T00:08:19.042Z,81.92
2022-12-17T00:11:04.802Z,82.86
2022-12-17T00:13:49.951Z,82.58
2022-12-17T00:16:36.173Z,83.18
2022-12-17T00:19:22.987Z,83.25
2022-12-17T00:22:07.242Z,83.06
2022-12-17T00:25:07.148Z,82.75
2022-12-17T00:27:53.080Z,82.56
2022-12-17T00:30:44.481Z,81.97
2022-12-17T00:33:31.050Z,81.89
2022-12-17T00:36:19.009Z,81.55
2022-12-17T00:39:04.849Z,81.81
2022-12-17T00:41:50.522Z,81.71
2022-12-17T00:44:35.740Z,81.77
2022-12-17T00:47:21.850Z,82.16
2022-12-17T00:50:07.838Z,81.60
2022-12-17T00:52:54.901Z,81.20
2022-12-17T00:55:41.675Z,81.50
2022-12-17T00:58:30.125Z,81.22
2022-12-17T01:01:17.624Z,81.52
2022-12-17T01:04:11.472Z,81.23
2022-12-17T01:06:57.905Z,80.39
2022-12-17T01:09:44.835Z,81.13
2022-12-17T01:12:30.699Z,81.25
2022-12-17T01:15:16.157Z,80.33
2022-12-17T01:18:02.376Z,80.12
2022-12-17T01:20:56.150Z,80.36
2022-12-17T01:23:42.431Z,79.96
2022-12-17T01:26:29.041Z,80.46
2022-12-17T01:29:15.723Z,80.63
2022-12-17T01:32:01.257Z,79.66
2022-12-17T01:34:46.604Z,79.92
2022-12-17T01:37:32.861Z,80.47
2022-12-17T01:40:18.477Z,80.63
2022-12-17T01:43:06.398Z,80.46
2022-12-17T01:46:02.899Z,80.49
2022-12-17T01:48:53.001Z,80.70
2022-12-17T01:51:38.413Z,80.81
2022-12-17T01:54:33.268Z,80.11
2022-12-17T01:57:20.435Z,79.57
2022-12-17T02:00:24.242Z,78.88
2022-12-17T02:03:10.087Z,77.80
2022-12-17T02:06:03.200Z,78.71
2022-12-17T02:08:57.676Z,78.40
2022-12-17T02:11:57.292Z,79.13
2022-12-17T02:14:52.197Z,79.00
2022-12-17T02:17:43.247Z,78.59
2022-12-17T02:20:41.287Z,78.09
2022-12-17T02:23:51.672Z,76.95
2022-12-17T02:26:48.259Z,77.76
2022-12-17T02:29:35.377Z,78.14
2022-12-17T02:32:22.965Z,78.20
2022-12-17T02:35:10.157Z,78.51
2022-12-17T02:37:56.940Z,78.20
2022-12-17T02:40:43.742Z,77.06
2022-12-17T02:43:30.456Z,76.72
2022-12-17T02:46:16.267Z,77.29
2022-12-17T02:49:02.231Z,76.96
2022-12-17T02:51:50.565Z,77.45
2022-12-17T02:54:38.932Z,77.22
2022-12-17T02:57:24.399Z,77.12
2022-12-17T03:00:10.788Z,77.35
2022-12-17T03:02:56.046Z,76.91
2022-12-17T03:05:45.589Z,77.84
2022-12-17T03:08:31.908Z,77.80
2022-12-17T03:11:17.173Z,77.91
2022-12-17T03:14:02.772Z,78.68
2022-12-17T03:16:49.632Z,78.28
2022-12-17T03:19:35.690Z,78.32
2022-12-17T03:22:23.934Z,78.23
2022-12-17T03:25:09.607Z,78.80
2022-12-17T03:27:54.803Z,79.00
2022-12-17T03:30:44.364Z,78.55
2022-12-17T03:33:34.347Z,79.01
2022-12-17T03:36:19.942Z,78.88
2022-12-17T03:39:05.218Z,78.48
2022-12-17T03:41:50.413Z,79.16
2022-12-17T03:44:35.867Z,79.07
2022-12-17T03:47:21.223Z,78.53
2022-12-17T03:50:08.379Z,79.04
2022-12-17T03:52:53.668Z,77.23
2022-12-17T03:55:39.132Z,76.78
2022-12-17T03:58:24.621Z,76.31
2022-12-17T04:01:10.762Z,76.29
2022-12-17T04:03:56.225Z,77.16
2022-12-17T04:06:42.949Z,76.84
2022-12-17T04:09:28.345Z,77.61
2022-12-17T04:12:19.085Z,77.06
2022-12-17T04:15:04.053Z,77.30
2022-12-17T04:17:49.204Z,78.14
2022-12-17T04:20:34.860Z,77.39
2022-12-17T04:23:21.636Z,77.36
2022-12-17T04:26:09.457Z,77.69
2022-12-17T04:28:54.758Z,77.87
2022-12-17T04:31:40.698Z,78.19
2022-12-17T04:34:25.776Z,77.45
2022-12-17T04:37:10.900Z,78.07
2022-12-17T04:39:57.273Z,78.41
2022-12-17T04:42:42.819Z,77.62
2022-12-17T04:45:29.285Z,78.48
2022-12-17T04:48:20.068Z,77.53
2022-12-17T04:51:05.649Z,76.88
2022-12-17T04:53:50.816Z,76.58
2022-12-17T04:56:38.612Z,76.08
2022-12-17T04:59:24.603Z,75.23
2022-12-17T05:02:10.532Z,75.40
2022-12-17T05:04:56.362Z,75.95
2022-12-17T05:07:41.614Z,76.21
2022-12-17T05:10:28.012Z,75.62
2022-12-17T05:13:18.735Z,75.89
2022-12-17T05:16:04.403Z,75.01
2022-12-17T05:18:49.964Z,74.24
2022-12-17T05:21:35.680Z,75.04
2022-12-17T05:24:21.075Z,74.13
2022-12-17T05:27:06.374Z,75.05
2022-12-17T05:29:53.114Z,74.57
2022-12-17T05:32:39.084Z,74.98
2022-12-17T05:35:26.261Z,74.38
2022-12-17T05:38:11.347Z,74.11
2022-12-17T05:40:56.606Z,74.36
2022-12-17T05:43:41.790Z,73.99
2022-12-17T05:46:29.089Z,73.40
2022-12-17T05:49:10.972Z,73.26
2022-12-17T05:51:57.204Z,73.11
2022-12-17T05:54:42.295Z,72.14
2022-12-17T05:57:28.315Z,71.73
2022-12-17T06:00:13.410Z,71.78
2022-12-17T06:03:00.823Z,71.64
2022-12-17T06:05:46.578Z,72.40
2022-12-17T06:08:31.794Z,71.95
2022-12-17T06:11:18.889Z,72.03
2022-12-17T06:14:05.686Z,72.61
2022-12-17T06:16:51.771Z,72.90
2022-12-17T06:19:38.056Z,73.14
2022-12-17T06:22:24.082Z,72.79
2022-12-17T06:25:09.143Z,72.72
2022-12-17T06:27:55.544Z,73.03
2022-12-17T06:30:40.979Z,72.50
2022-12-17T06:33:28.833Z,72.59
2022-12-17T06:36:22.166Z,72.67
2022-12-17T06:39:07.880Z,72.42
2022-12-17T06:42:04.380Z,72.76
2022-12-17T06:44:50.097Z,72.63
2022-12-17T06:47:35.799Z,71.75
2022-12-17T06:50:20.895Z,70.90
2022-12-17T06:53:17.237Z,70.06
2022-12-17T06:56:02.466Z,70.29
2022-12-17T06:58:49.166Z,69.57
2022-12-17T07:01:36.932Z,68.91
2022-12-17T07:04:22.269Z,67.92
2022-12-17T07:07:07.684Z,68.15
2022-12-17T07:09:54.311Z,68.58
2022-12-17T07:12:39.893Z,68.66
2022-12-17T07:15:25.890Z,68.52
2022-12-17T07:18:15.456Z,69.37
2022-12-17T07:21:01.063Z,70.50
2022-12-17T07:23:46.849Z,70.89
2022-12-17T07:26:33.813Z,71.21
2022-12-17T07:29:19.651Z,71.27
2022-12-17T07:32:05.260Z,71.23
2022-12-17T07:34:50.571Z,70.62
2022-12-17T07:37:36.417Z,70.68
2022-12-17T07:40:21.979Z,70.37
2022-12-17T07:43:08.653Z,70.47
2022-12-17T07:45:54.077Z,69.84
2022-12-17T07:48:39.587Z,70.08
2022-12-17T07:51:24.803Z,70.11
2022-12-17T07:54:10.060Z,69.71
2022-12-17T07:56:55.764Z,70.08
2022-12-17T07:59:43.065Z,70.01
2022-12-17T08:02:28.691Z,70.76
2022-12-17T08:05:14.376Z,69.95
2022-12-17T08:07:59.649Z,72.03
2022-12-17T08:10:44.948Z,71.76
2022-12-17T08:13:30.478Z,70.57
2022-12-17T08:16:17.251Z,70.13
2022-12-17T08:19:02.864Z,70.68
2022-12-17T08:21:48.210Z,69.80
2022-12-17T08:24:33.372Z,69.45
2022-12-17T08:27:18.657Z,69.11
2022-12-17T08:30:04.866Z,69.09
2022-12-17T08:32:51.875Z,70.41
2022-12-17T08:35:37.370Z,70.14
2022-12-17T08:38:25.127Z,70.97
2022-12-17T08:41:10.345Z,65.97
2022-12-17T08:43:56.352Z,60.45
2022-12-17T08:46:41.486Z,56.58
2022-12-17T08:49:36.666Z,54.06
2022-12-17T08:52:22.227Z,52.56
2022-12-17T08:55:07.763Z,50.44
2022-12-17T08:57:53.047Z,49.39
2022-12-17T09:00:38.969Z,48.21
2022-12-17T09:03:25.440Z,46.70
2022-12-17T09:06:26.687Z,46.21
2022-12-17T09:09:12.463Z,45.17
2022-12-17T09:11:54.072Z,45.17
2022-12-17T09:14:39.705Z,44.48
2022-12-17T09:17:24.828Z,43.93
2022-12-17T09:20:10.056Z,42.70
2022-12-17T09:22:57.262Z,44.02
2022-12-17T09:25:43.285Z,45.77
2022-12-17T09:28:28.807Z,47.02
2022-12-17T09:31:17.249Z,46.26
2022-12-17T09:34:03.861Z,44.67
2022-12-17T09:36:51.312Z,43.18
2022-12-17T09:39:39.288Z,42.42
2022-12-17T09:42:33.179Z,41.37
2022-12-17T09:45:37.587Z,40.70
2022-12-17T09:48:32.630Z,40.09
2022-12-17T09:51:18.408Z,40.19
2022-12-17T09:54:20.590Z,39.17
2022-12-17T09:57:07.544Z,39.06
2022-12-17T09:59:54.802Z,38.70
2022-12-17T10:02:44.271Z,38.10
2022-12-17T10:05:33.647Z,36.07
2022-12-17T10:08:19.845Z,37.08
2022-12-17T10:11:05.853Z,37.49
2022-12-17T10:13:52.675Z,37.09
2022-12-17T10:16:44.524Z,37.24
2022-12-17T10:19:36.165Z,36.65
2022-12-17T10:22:30.086Z,36.67
2022-12-17T10:25:15.338Z,36.24
2022-12-17T10:28:00.800Z,35.86
2022-12-17T10:30:48.286Z,35.94
2022-12-17T10:33:38.206Z,34.86
2022-12-17T10:36:37.542Z,34.01
2022-12-17T10:39:23.843Z,33.48
2022-12-17T10:42:09.188Z,34.75
2022-12-17T10:44:56.703Z,34.49
2022-12-17T10:47:45.362Z,34.63
2022-12-17T10:50:33.734Z,32.95
2022-12-17T10:53:20.155Z,33.62
2022-12-17T10:56:13.633Z,34.31
2022-12-17T10:59:03.287Z,34.16
2022-12-17T11:01:49.478Z,33.07
2022-12-17T11:04:44.938Z,33.64
2022-12-17T11:07:36.636Z,34.65
2022-12-17T11:10:24.576Z,34.63
2022-12-17T11:13:14.025Z,35.10
2022-12-17T11:16:02.975Z,35.07
2022-12-17T11:18:55.333Z,35.54
2022-12-17T11:21:45.336Z,34.96
2022-12-17T11:24:35.343Z,35.58
2022-12-17T11:27:26.412Z,36.36
2022-12-17T11:30:11.965Z,35.89
2022-12-17T11:33:19.197Z,35.62
2022-12-17T11:36:10.733Z,36.20
2022-12-17T11:38:59.855Z,37.18
2022-12-17T11:41:53.748Z,37.42
2022-12-17T11:44:51.975Z,38.75
2022-12-17T11:47:47.026Z,40.16
2022-12-17T11:50:44.410Z,41.15
2022-12-17T11:53:41.342Z,42.26
2022-12-17T11:56:40.716Z,43.49
2022-12-17T11:59:35.473Z,44.99
2022-12-17T12:02:30.445Z,45.67
2022-12-17T12:05:36.545Z,46.34
2022-12-17T12:08:33.512Z,46.39
2022-12-17T12:11:31.944Z,45.99
2022-12-17T12:14:28.246Z,44.46
2022-12-17T12:17:25.369Z,43.48
2022-12-17T12:20:23.482Z,42.46
2022-12-17T12:23:19.147Z,41.52
2022-12-17T12:26:20.410Z,39.53
2022-12-17T12:29:10.649Z,40.27
2022-12-17T12:32:04.509Z,42.13
2022-12-17T12:34:53.741Z,44.52
2022-12-17T12:37:40.225Z,46.55
2022-12-17T12:40:34.117Z,48.04
2022-12-17T12:43:23.512Z,49.55
2022-12-17T12:46:16.060Z,50.61
2022-12-17T12:49:08.585Z,51.53
2022-12-17T12:51:55.901Z,52.98
2022-12-17T12:54:47.527Z,53.45
2022-12-17T12:57:47.324Z,54.64
2022-12-17T13:00:48.531Z,56.12
2022-12-17T13:03:40.250Z,56.13
2022-12-17T13:06:09.797Z,57.08
2022-12-17T13:08:37.974Z,56.54
2022-12-17T13:11:28.397Z,57.87
2022-12-17T13:14:02.030Z,58.53
2022-12-17T13:16:40.451Z,57.61
2022-12-17T13:19:20.845Z,57.71
2022-12-17T13:21:50.170Z,58.33
2022-12-17T13:24:25.902Z,58.47
2022-12-17T13:26:54.615Z,58.89
2022-12-17T13:29:28.130Z,59.43
2022-12-17T13:32:05.014Z,61.07
2022-12-17T13:34:44.671Z,60.94
2022-12-17T13:37:27.531Z,61.52
2022-12-17T13:40:04.576Z,60.88
2022-12-17T13:42:36.089Z,60.80
2022-12-17T13:45:04.353Z,61.73
2022-12-17T13:47:34.546Z,61.62
2022-12-17T13:50:33.364Z,62.02
2022-12-17T13:52:55.724Z,62.55
2022-12-17T13:55:26.362Z,62.95
2022-12-17T13:57:55.825Z,62.57
2022-12-17T14:00:26.212Z,63.01
2022-12-17T14:02:54.756Z,62.32
2022-12-17T14:05:26.342Z,61.98
2022-12-17T14:07:58.821Z,62.37
2022-12-17T14:10:27.132Z,62.29
2022-12-17T14:13:04.348Z,63.08
2022-12-17T14:15:33.237Z,63.02
2022-12-17T14:18:01.640Z,64.57
2022-12-17T14:20:31.945Z,64.64
2022-12-17T14:23:05.580Z,64.95
2022-12-17T14:25:36.539Z,65.41
2022-12-17T14:28:06.750Z,65.25
2022-12-17T14:30:40.508Z,65.42
2022-12-17T14:33:27.658Z,65.27
2022-12-17T14:36:00.697Z,65.09
2022-12-17T14:38:38.494Z,65.75
2022-12-17T14:41:30.844Z,65.87
2022-12-17T14:44:01.095Z,66.26
2022-12-17T14:46:29.681Z,66.39
2022-12-17T14:49:02.084Z,66.32
2022-12-17T14:51:32.665Z,66.66
2022-12-17T14:54:18.680Z,67.06
2022-12-17T14:56:48.007Z,67.46
2022-12-17T14:59:26.966Z,67.17
2022-12-17T15:01:56.312Z,67.37
2022-12-17T15:04:24.997Z,67.38
2022-12-17T15:06:56.105Z,67.75
2022-12-17T15:09:25.603Z,67.90
2022-12-17T15:11:53.655Z,67.75
2022-12-17T15:14:23.260Z,68.15
2022-12-17T15:16:50.963Z,68.47
2022-12-17T15:19:19.160Z,67.99
2022-12-17T15:21:46.910Z,68.77
2022-12-17T15:24:18.684Z,68.91
2022-12-17T15:26:48.388Z,69.31
2022-12-17T15:29:16.398Z,68.52
2022-12-17T15:31:44.101Z,69.01
2022-12-17T15:34:13.154Z,68.53
2022-12-17T15:36:40.795Z,68.04
2022-12-17T15:39:09.554Z,68.25
2022-12-17T15:41:55.126Z,68.25
2022-12-17T15:44:24.704Z,68.21
2022-12-17T15:46:52.350Z,68.47
2022-12-17T15:49:21.166Z,68.41
2022-12-17T15:51:49.224Z,69.17
2022-12-17T15:54:16.894Z,68.88
2022-12-17T15:56:53.648Z,69.23
2022-12-17T15:59:21.328Z,69.25
2022-12-17T16:01:50.667Z,69.03
2022-12-17T16:04:24.703Z,69.40
2022-12-17T16:06:53.091Z,69.61
2022-12-17T16:09:24.321Z,70.18
2022-12-17T16:11:54.085Z,69.01
2022-12-17T16:14:22.802Z,69.43
2022-12-17T16:16:52.431Z,70.05
2022-12-17T16:19:20.395Z,70.58
2022-12-17T16:21:48.025Z,71.08
2022-12-17T16:24:16.315Z,72.48
2022-12-17T16:26:43.953Z,72.95
2022-12-17T16:29:11.936Z,73.05
2022-12-17T16:31:39.788Z,73.17
2022-12-17T16:34:11.720Z,74.08
2022-12-17T16:36:39.435Z,73.66
2022-12-17T16:39:07.575Z,75.16
2022-12-17T16:41:35.502Z,72.78
2022-12-17T16:44:04.163Z,71.84
2022-12-17T16:46:33.825Z,70.21
2022-12-17T16:49:06.348Z,70.38
2022-12-17T16:51:36.153Z,70.50
2022-12-17T16:54:06.472Z,69.86
2022-12-17T16:56:39.620Z,70.19
2022-12-17T16:59:08.574Z,71.49
2022-12-17T17:01:37.917Z,70.95
2022-12-17T17:04:06.424Z,71.91
2022-12-17T17:06:39.531Z,72.53
2022-12-17T17:09:07.724Z,72.87
2022-12-17T17:11:35.745Z,72.97
2022-12-17T17:14:04.861Z,72.80
2022-12-17T17:16:34.193Z,73.53
2022-12-17T17:19:03.160Z,74.33
2022-12-17T17:21:34.189Z,75.44
2022-12-17T17:24:06.969Z,75.24
2022-12-17T17:26:36.007Z,75.12
2022-12-17T17:29:04.596Z,75.90
2022-12-17T17:32:08.241Z,75.88
2022-12-17T17:34:21.274Z,76.72
2022-12-17T17:36:49.578Z,76.69
2022-12-17T17:39:18.689Z,76.59
2022-12-17T17:41:46.611Z,76.13
2022-12-17T17:44:15.038Z,76.05
2022-12-17T17:46:43.660Z,76.32
2022-12-17T17:49:12.518Z,76.47
2022-12-17T17:54:32.397Z,76.70
2022-12-17T17:57:00.161Z,76.64
2022-12-17T17:59:33.300Z,76.63
2022-12-17T18:02:03.011Z,76.34
2022-12-17T18:04:31.116Z,76.88
2022-12-17T18:09:48.566Z,76.57
2022-12-17T18:12:35.162Z,76.76
2022-12-17T18:15:14.210Z,76.48
2022-12-17T18:17:42.823Z,77.10
2022-12-17T18:20:11.920Z,76.53
2022-12-17T18:22:39.548Z,76.34
2022-12-17T18:25:09.334Z,76.18
2022-12-17T18:27:37.098Z,76.61
2022-12-17T18:30:05.334Z,75.97
2022-12-17T18:32:33.208Z,76.53
2022-12-17T18:35:00.854Z,76.59
2022-12-17T18:37:29.202Z,76.69
2022-12-17T18:39:56.824Z,76.57
2022-12-17T18:42:44.114Z,77.03
2022-12-17T18:45:13.147Z,77.34
2022-12-17T18:47:42.441Z,77.30
2022-12-17T18:50:10.950Z,77.06
2022-12-17T18:52:39.273Z,77.53
2022-12-17T18:55:08.592Z,77.47
2022-12-17T18:57:37.901Z,77.72
2022-12-17T19:00:06.952Z,77.91
2022-12-17T19:02:35.305Z,77.84
2022-12-17T19:05:03.040Z,78.16
2022-12-17T19:07:30.777Z,78.05
2022-12-17T19:09:58.399Z,78.39
2022-12-17T19:12:26.133Z,77.90
2022-12-17T19:14:55.093Z,78.53
2022-12-17T19:17:22.966Z,78.54
2022-12-17T19:19:50.760Z,78.41
2022-12-17T19:22:18.666Z,78.81
2022-12-17T19:24:46.706Z,79.12
2022-12-17T19:27:14.400Z,79.20
2022-12-17T19:29:46.221Z,78.85
2022-12-17T19:32:18.430Z,78.75
2022-12-17T19:34:46.039Z,78.89
2022-12-17T19:37:13.911Z,78.53
2022-12-17T19:39:41.557Z,78.87
2022-12-17T19:42:24.425Z,79.27
2022-12-17T19:44:53.480Z,79.01
2022-12-17T19:47:24.112Z,78.90
2022-12-17T19:49:51.829Z,78.94
2022-12-17T19:52:19.935Z,79.28
2022-12-17T19:54:49.570Z,79.49
2022-12-17T19:57:17.555Z,79.58
2022-12-17T19:59:45.176Z,79.59
2022-12-17T20:02:13.345Z,79.50
2022-12-17T20:04:42.443Z,79.63
2022-12-17T20:07:10.053Z,79.30
2022-12-17T20:09:38.043Z,79.17
2022-12-17T20:12:06.223Z,79.70
2022-12-17T20:14:35.260Z,79.46
2022-12-17T20:17:04.927Z,80.08
2022-12-17T20:19:34.882Z,79.87
2022-12-17T20:22:05.805Z,79.51
2022-12-17T20:24:34.009Z,79.27
2022-12-17T20:27:02.241Z,79.23
2022-12-17T20:29:30.519Z,79.38
2022-12-17T20:31:58.404Z,79.39
2022-12-17T20:34:26.584Z,79.92
2022-12-17T20:36:54.757Z,79.95
2022-12-17T20:39:27.693Z,80.10
2022-12-17T20:41:56.391Z,79.62
2022-12-17T20:44:24.424Z,79.42
2022-12-17T20:46:52.040Z,79.29
2022-12-17T20:49:20.255Z,79.54
2022-12-17T20:51:47.986Z,79.38
2022-12-17T20:54:15.804Z,79.05
2022-12-17T20:56:44.787Z,79.34
2022-12-17T20:59:16.427Z,79.88
2022-12-17T21:01:45.017Z,79.45
2022-12-17T21:04:14.395Z,79.91
2022-12-17T21:06:44.451Z,79.46
2022-12-17T21:09:13.444Z,79.37
2022-12-17T21:11:44.085Z,79.44
2022-12-17T21:14:14.965Z,79.06
2022-12-17T21:16:44.295Z,79.02
2022-12-17T21:19:15.421Z,79.41
2022-12-17T21:21:43.168Z,79.42
2022-12-17T21:24:11.172Z,79.23
2022-12-17T21:26:40.973Z,79.50
2022-12-17T21:29:11.375Z,79.58
2022-12-17T21:31:41.202Z,79.72
2022-12-17T21:34:12.780Z,79.97
2022-12-17T21:36:41.086Z,79.66
2022-12-17T21:39:10.325Z,79.90
2022-12-17T21:41:44.587Z,79.97
2022-12-17T21:44:15.843Z,80.11
2022-12-17T21:46:45.590Z,79.82
2022-12-17T21:49:18.561Z,80.00
2022-12-17T21:51:46.428Z,79.98
2022-12-17T21:54:19.323Z,79.96
2022-12-17T21:56:47.822Z,79.96
2022-12-17T21:59:17.784Z,79.81
2022-12-17T22:01:45.601Z,80.10
2022-12-17T22:04:13.741Z,79.72
2022-12-17T22:06:48.750Z,79.63
2022-12-17T22:09:26.828Z,79.55
2022-12-17T22:12:28.747Z,79.59
2022-12-17T22:14:58.075Z,79.62
2022-12-17T22:17:26.303Z,79.33
2022-12-17T22:19:54.515Z,79.38
2022-12-17T22:22:22.156Z,79.44
2022-12-17T22:24:50.307Z,79.36
2022-12-17T22:27:18.053Z,79.66
2022-12-17T22:30:03.931Z,79.53
2022-12-17T22:32:50.616Z,79.08
2022-12-17T22:36:11.136Z,79.33
2022-12-17T22:42:13.063Z,79.46
2022-12-17T22:44:42.607Z,79.52
2022-12-17T22:44:45.245Z,79.98
2022-12-17T22:46:40.371Z,79.53
2022-12-17T22:49:09.651Z,79.67
2022-12-17T22:51:39.161Z,79.33
2022-12-17T22:54:08.943Z,79.44
2022-12-17T22:57:18.395Z,79.71
2022-12-17T22:59:26.548Z,79.53
2022-12-17T23:01:54.615Z,79.46
2022-12-17T23:04:23.925Z,79.30
2022-12-17T23:06:51.864Z,79.27
2022-12-17T23:09:20.728Z,78.86
2022-12-17T23:11:50.228Z,78.78
2022-12-17T23:14:18.649Z,78.70
2022-12-17T23:16:47.167Z,79.04
2022-12-17T23:19:14.860Z,79.21
2022-12-17T23:21:44.334Z,79.07
2022-12-17T23:24:11.965Z,79.19
2022-12-17T23:26:40.811Z,79.39
2022-12-17T23:29:14.884Z,78.85
2022-12-17T23:31:45.295Z,78.96
2022-12-17T23:34:12.985Z,78.48
2022-12-17T23:36:40.886Z,78.77
2022-12-17T23:39:10.185Z,78.87
2022-12-17T23:41:38.285Z,79.06
2022-12-17T23:44:06.162Z,79.45
2022-12-17T23:46:34.799Z,79.01
2022-12-17T23:49:06.012Z,79.84
2022-12-17T23:51:34.376Z,79.51
2022-12-17T23:54:02.014Z,79.98
2022-12-17T23:56:31.420Z,79.62
2022-12-17T23:59:01.700Z,79.45
